CFB Bagotville


Codes: CYBG/YBG
Name: CFB Bagotville
City: Bagotville
Country: Canada
Elevation: 522 ft.
Wikipedia:

Photos at CFB Bagotville


   Photos courtesy of SpottingLog. You can add your own sightings and photos by signing up for a free trial today.



No photos found.

Weather at CFB Bagotville


Time (UTC)DescriptionTempratureWindCloud coverageVisibilityPressureHumidity
18-Apr-2024 00:00Overcast Clouds7°C4 mph, NE90%10000m1023hPa57%
18-Apr-2024 03:00Broken Clouds3°C4 mph, E56%10000m1024hPa71%
18-Apr-2024 06:00Scattered Clouds-0°C4 mph, E48%10000m1025hPa85%
18-Apr-2024 09:00Broken Clouds-0°C7 mph, E70%10000m1025hPa83%
18-Apr-2024 12:00Broken Clouds3°C9 mph, E59%10000m1025hPa61%
18-Apr-2024 15:00Overcast Clouds8°C11 mph, E87%10000m1023hPa43%
18-Apr-2024 18:00Overcast Clouds11°C13 mph, E93%10000m1021hPa36%
18-Apr-2024 21:00Overcast Clouds10°C11 mph, E100%10000m1020hPa39%
19-Apr-2024 00:00Overcast Clouds5°C9 mph, E100%10000m1021hPa51%
19-Apr-2024 03:00Overcast Clouds3°C7 mph, E100%10000m1021hPa60%
19-Apr-2024 06:00Overcast Clouds2°C7 mph, E100%10000m1020hPa67%
19-Apr-2024 09:00Overcast Clouds2°C4 mph, SE99%10000m1019hPa70%
19-Apr-2024 12:00Overcast Clouds4°C7 mph, E92%10000m1018hPa68%
19-Apr-2024 15:00Overcast Clouds8°C7 mph, E100%10000m1015hPa64%
19-Apr-2024 18:00Light Rain9°C7 mph, SE100%10000m1012hPa70%
19-Apr-2024 21:00Moderate Rain7°C9 mph, SE100%10000m1010hPa87%
20-Apr-2024 00:00Light Rain7°C7 mph, SE100%10000m1007hPa87%
20-Apr-2024 03:00Light Rain8°C11 mph, S100%10000m1004hPa81%
20-Apr-2024 06:00Light Rain9°C9 mph, SW100%10000m1002hPa80%
20-Apr-2024 09:00Light Rain5°C16 mph, SW23%10000m1004hPa72%
20-Apr-2024 12:00Few Clouds4°C13 mph, SW23%10000m1006hPa70%
20-Apr-2024 15:00Broken Clouds7°C16 mph, W83%10000m1005hPa53%
20-Apr-2024 18:00Light Rain8°C16 mph, W91%10000m1005hPa49%
20-Apr-2024 21:00Light Rain8°C13 mph, W98%10000m1005hPa49%
21-Apr-2024 00:00Broken Clouds4°C7 mph, SW67%10000m1005hPa65%
21-Apr-2024 03:00Scattered Clouds3°C7 mph, W43%10000m1005hPa72%
21-Apr-2024 06:00Broken Clouds3°C7 mph, W58%10000m1005hPa80%
21-Apr-2024 09:00Light Snow2°C7 mph, W87%264m1006hPa97%
21-Apr-2024 12:00Light Snow2°C9 mph, NW87%10000m1008hPa60%
21-Apr-2024 15:00Overcast Clouds5°C9 mph, NW94%10000m1007hPa45%
21-Apr-2024 18:00Light Rain7°C11 mph, W97%5664m1005hPa48%
21-Apr-2024 21:00Light Rain7°C13 mph, W99%10000m1004hPa56%
22-Apr-2024 00:00Light Rain5°C11 mph, SW100%10000m1004hPa62%
22-Apr-2024 03:00Light Rain4°C11 mph, SW100%10000m1002hPa72%
22-Apr-2024 06:00Light Snow-0°C16 mph, W92%10000m1004hPa86%
22-Apr-2024 09:00Light Snow-3°C11 mph, W97%10000m1008hPa70%
22-Apr-2024 12:00Overcast Clouds-5°C16 mph, NW98%10000m1012hPa56%
22-Apr-2024 15:00Overcast Clouds-3°C18 mph, NW100%10000m1014hPa30%
22-Apr-2024 18:00Overcast Clouds-1°C13 mph, NW100%10000m1015hPa28%
22-Apr-2024 21:00Overcast Clouds-0°C13 mph, NW100%10000m1015hPa38%